sensor_id;sensor_type;location;lat;lon;timestamp;P1;durP1;ratioP1;P2;durP2;ratioP2
17606;SDS011;8922;52.240;20.980;2023-02-23T00:02:18;4.63;;;3.53;;
17606;SDS011;8922;52.240;20.980;2023-02-23T00:04:46;5.57;;;3.87;;
17606;SDS011;8922;52.240;20.980;2023-02-23T00:07:15;5.57;;;3.93;;
17606;SDS011;8922;52.240;20.980;2023-02-23T00:09:45;5.37;;;3.53;;
17606;SDS011;8922;52.240;20.980;2023-02-23T00:12:14;5.87;;;3.90;;
17606;SDS011;8922;52.240;20.980;2023-02-23T00:14:42;6.07;;;3.40;;
17606;SDS011;8922;52.240;20.980;2023-02-23T00:17:11;4.77;;;3.77;;
17606;SDS011;8922;52.240;20.980;2023-02-23T00:19:45;5.40;;;3.80;;
17606;SDS011;8922;52.240;20.980;2023-02-23T00:22:14;5.07;;;3.40;;
17606;SDS011;8922;52.240;20.980;2023-02-23T00:24:43;5.13;;;3.60;;
17606;SDS011;8922;52.240;20.980;2023-02-23T00:27:13;6.50;;;3.87;;
17606;SDS011;8922;52.240;20.980;2023-02-23T00:29:45;5.30;;;3.73;;
17606;SDS011;8922;52.240;20.980;2023-02-23T00:32:15;4.73;;;3.43;;
17606;SDS011;8922;52.240;20.980;2023-02-23T00:34:47;5.07;;;3.90;;
17606;SDS011;8922;52.240;20.980;2023-02-23T00:37:16;5.23;;;3.63;;
17606;SDS011;8922;52.240;20.980;2023-02-23T00:39:45;5.57;;;3.70;;
17606;SDS011;8922;52.240;20.980;2023-02-23T00:42:13;5.50;;;3.60;;
17606;SDS011;8922;52.240;20.980;2023-02-23T00:44:42;5.70;;;3.50;;
17606;SDS011;8922;52.240;20.980;2023-02-23T00:47:12;6.70;;;4.20;;
17606;SDS011;8922;52.240;20.980;2023-02-23T00:49:41;4.33;;;3.43;;
17606;SDS011;8922;52.240;20.980;2023-02-23T00:52:12;5.67;;;3.93;;
17606;SDS011;8922;52.240;20.980;2023-02-23T00:54:40;6.13;;;3.87;;
17606;SDS011;8922;52.240;20.980;2023-02-23T00:57:09;5.87;;;4.13;;
17606;SDS011;8922;52.240;20.980;2023-02-23T00:59:37;6.20;;;4.30;;
17606;SDS011;8922;52.240;20.980;2023-02-23T01:02:06;6.70;;;3.60;;
17606;SDS011;8922;52.240;20.980;2023-02-23T01:04:34;7.00;;;4.50;;
17606;SDS011;8922;52.240;20.980;2023-02-23T01:07:03;6.10;;;3.90;;
17606;SDS011;8922;52.240;20.980;2023-02-23T01:09:33;5.57;;;3.57;;
17606;SDS011;8922;52.240;20.980;2023-02-23T01:12:03;8.60;;;3.70;;
17606;SDS011;8922;52.240;20.980;2023-02-23T01:14:33;5.40;;;3.67;;
17606;SDS011;8922;52.240;20.980;2023-02-23T01:17:03;5.67;;;3.43;;
17606;SDS011;8922;52.240;20.980;2023-02-23T01:19:32;4.67;;;3.50;;
17606;SDS011;8922;52.240;20.980;2023-02-23T01:22:01;5.33;;;2.97;;
17606;SDS011;8922;52.240;20.980;2023-02-23T01:24:30;4.53;;;3.17;;
17606;SDS011;8922;52.240;20.980;2023-02-23T01:27:00;6.20;;;4.07;;
17606;SDS011;8922;52.240;20.980;2023-02-23T01:29:28;5.97;;;3.80;;
17606;SDS011;8922;52.240;20.980;2023-02-23T01:31:56;5.90;;;3.67;;
17606;SDS011;8922;52.240;20.980;2023-02-23T01:34:27;4.73;;;3.63;;
17606;SDS011;8922;52.240;20.980;2023-02-23T01:36:56;5.07;;;3.83;;
17606;SDS011;8922;52.240;20.980;2023-02-23T01:39:24;6.67;;;3.70;;
17606;SDS011;8922;52.240;20.980;2023-02-23T01:41:53;5.70;;;3.70;;
17606;SDS011;8922;52.240;20.980;2023-02-23T01:47:50;5.77;;;3.60;;
17606;SDS011;8922;52.240;20.980;2023-02-23T01:50:23;5.33;;;3.50;;
17606;SDS011;8922;52.240;20.980;2023-02-23T01:52:54;6.07;;;3.83;;
17606;SDS011;8922;52.240;20.980;2023-02-23T01:55:25;6.53;;;3.97;;
17606;SDS011;8922;52.240;20.980;2023-02-23T01:57:56;6.07;;;3.70;;
17606;SDS011;8922;52.240;20.980;2023-02-23T02:00:38;5.30;;;3.80;;
17606;SDS011;8922;52.240;20.980;2023-02-23T02:03:07;5.23;;;3.80;;
17606;SDS011;8922;52.240;20.980;2023-02-23T02:05:42;7.00;;;4.27;;
17606;SDS011;8922;52.240;20.980;2023-02-23T02:08:12;5.70;;;3.67;;
17606;SDS011;8922;52.240;20.980;2023-02-23T02:10:41;6.43;;;3.73;;
17606;SDS011;8922;52.240;20.980;2023-02-23T02:13:13;5.43;;;3.93;;
17606;SDS011;8922;52.240;20.980;2023-02-23T02:15:56;6.87;;;3.87;;
17606;SDS011;8922;52.240;20.980;2023-02-23T02:18:46;6.03;;;3.97;;
17606;SDS011;8922;52.240;20.980;2023-02-23T02:21:31;5.67;;;4.30;;
17606;SDS011;8922;52.240;20.980;2023-02-23T02:31:30;6.97;;;4.07;;
17606;SDS011;8922;52.240;20.980;2023-02-23T02:34:56;6.67;;;3.53;;
17606;SDS011;8922;52.240;20.980;2023-02-23T02:38:01;6.30;;;4.17;;
17606;SDS011;8922;52.240;20.980;2023-02-23T02:40:44;6.83;;;4.03;;
17606;SDS011;8922;52.240;20.980;2023-02-23T02:43:22;7.00;;;4.43;;
17606;SDS011;8922;52.240;20.980;2023-02-23T02:46:01;7.63;;;4.17;;
17606;SDS011;8922;52.240;20.980;2023-02-23T02:48:38;7.63;;;4.50;;
17606;SDS011;8922;52.240;20.980;2023-02-23T02:51:16;6.90;;;4.70;;
17606;SDS011;8922;52.240;20.980;2023-02-23T02:53:57;5.97;;;4.00;;
17606;SDS011;8922;52.240;20.980;2023-02-23T02:56:33;7.23;;;4.23;;
17606;SDS011;8922;52.240;20.980;2023-02-23T02:59:08;6.43;;;4.07;;
17606;SDS011;8922;52.240;20.980;2023-02-23T03:01:58;6.60;;;4.10;;
17606;SDS011;8922;52.240;20.980;2023-02-23T03:04:44;7.23;;;4.50;;
17606;SDS011;8922;52.240;20.980;2023-02-23T03:07:33;8.00;;;5.03;;
17606;SDS011;8922;52.240;20.980;2023-02-23T03:10:28;9.70;;;4.17;;
17606;SDS011;8922;52.240;20.980;2023-02-23T03:13:26;5.93;;;3.70;;
17606;SDS011;8922;52.240;20.980;2023-02-23T03:16:27;7.77;;;4.70;;
17606;SDS011;8922;52.240;20.980;2023-02-23T03:19:22;5.57;;;4.00;;
17606;SDS011;8922;52.240;20.980;2023-02-23T03:22:16;7.93;;;5.17;;
17606;SDS011;8922;52.240;20.980;2023-02-23T03:25:08;9.37;;;5.03;;
17606;SDS011;8922;52.240;20.980;2023-02-23T03:28:01;8.17;;;4.40;;
17606;SDS011;8922;52.240;20.980;2023-02-23T03:30:58;6.87;;;4.23;;
17606;SDS011;8922;52.240;20.980;2023-02-23T03:33:52;8.93;;;5.03;;
17606;SDS011;8922;52.240;20.980;2023-02-23T03:36:49;7.27;;;4.37;;
17606;SDS011;8922;52.240;20.980;2023-02-23T03:39:43;6.60;;;4.43;;
17606;SDS011;8922;52.240;20.980;2023-02-23T03:42:38;7.40;;;4.77;;
17606;SDS011;8922;52.240;20.980;2023-02-23T03:45:28;9.17;;;5.07;;
17606;SDS011;8922;52.240;20.980;2023-02-23T03:48:15;8.83;;;4.70;;
17606;SDS011;8922;52.240;20.980;2023-02-23T03:51:05;8.20;;;4.97;;
17606;SDS011;8922;52.240;20.980;2023-02-23T03:53:58;6.43;;;4.10;;
17606;SDS011;8922;52.240;20.980;2023-02-23T03:56:48;7.07;;;4.80;;
17606;SDS011;8922;52.240;20.980;2023-02-23T03:59:39;7.03;;;4.60;;
17606;SDS011;8922;52.240;20.980;2023-02-23T04:02:31;5.63;;;4.03;;
17606;SDS011;8922;52.240;20.980;2023-02-23T04:05:21;6.90;;;4.40;;
17606;SDS011;8922;52.240;20.980;2023-02-23T04:08:11;8.83;;;4.87;;
17606;SDS011;8922;52.240;20.980;2023-02-23T04:11:04;8.40;;;4.73;;
17606;SDS011;8922;52.240;20.980;2023-02-23T04:13:59;7.23;;;4.70;;
17606;SDS011;8922;52.240;20.980;2023-02-23T04:16:32;7.13;;;4.33;;
17606;SDS011;8922;52.240;20.980;2023-02-23T04:19:01;7.77;;;4.60;;
17606;SDS011;8922;52.240;20.980;2023-02-23T04:21:30;6.53;;;4.40;;
17606;SDS011;8922;52.240;20.980;2023-02-23T04:23:58;8.33;;;4.73;;
17606;SDS011;8922;52.240;20.980;2023-02-23T04:26:26;7.50;;;4.70;;
17606;SDS011;8922;52.240;20.980;2023-02-23T04:28:55;7.43;;;4.43;;
17606;SDS011;8922;52.240;20.980;2023-02-23T04:31:23;6.77;;;4.50;;
17606;SDS011;8922;52.240;20.980;2023-02-23T04:33:52;8.07;;;4.30;;
17606;SDS011;8922;52.240;20.980;2023-02-23T04:36:22;6.47;;;4.30;;
17606;SDS011;8922;52.240;20.980;2023-02-23T04:38:52;8.27;;;4.37;;
17606;SDS011;8922;52.240;20.980;2023-02-23T04:41:20;7.43;;;4.33;;
17606;SDS011;8922;52.240;20.980;2023-02-23T04:43:48;7.57;;;5.00;;
17606;SDS011;8922;52.240;20.980;2023-02-23T04:46:17;9.33;;;5.10;;
17606;SDS011;8922;52.240;20.980;2023-02-23T04:48:46;5.03;;;3.83;;
17606;SDS011;8922;52.240;20.980;2023-02-23T04:51:14;5.70;;;4.20;;
17606;SDS011;8922;52.240;20.980;2023-02-23T04:53:44;9.10;;;4.57;;
17606;SDS011;8922;52.240;20.980;2023-02-23T04:56:13;6.60;;;4.07;;
17606;SDS011;8922;52.240;20.980;2023-02-23T04:58:41;7.87;;;4.33;;
17606;SDS011;8922;52.240;20.980;2023-02-23T05:01:10;6.83;;;3.87;;
17606;SDS011;8922;52.240;20.980;2023-02-23T05:03:38;6.47;;;4.43;;
17606;SDS011;8922;52.240;20.980;2023-02-23T05:06:07;7.43;;;4.13;;
17606;SDS011;8922;52.240;20.980;2023-02-23T05:08:37;7.93;;;4.50;;
17606;SDS011;8922;52.240;20.980;2023-02-23T05:11:08;7.07;;;4.10;;
17606;SDS011;8922;52.240;20.980;2023-02-23T05:13:38;15.37;;;4.60;;
17606;SDS011;8922;52.240;20.980;2023-02-23T05:16:07;6.83;;;4.37;;
17606;SDS011;8922;52.240;20.980;2023-02-23T05:18:35;9.67;;;5.03;;
17606;SDS011;8922;52.240;20.980;2023-02-23T05:21:06;4.97;;;3.53;;
17606;SDS011;8922;52.240;20.980;2023-02-23T05:23:35;8.77;;;4.50;;
17606;SDS011;8922;52.240;20.980;2023-02-23T05:26:05;5.37;;;4.17;;
17606;SDS011;8922;52.240;20.980;2023-02-23T05:28:37;6.60;;;4.47;;
17606;SDS011;8922;52.240;20.980;2023-02-23T05:31:08;6.30;;;4.20;;
17606;SDS011;8922;52.240;20.980;2023-02-23T05:33:37;9.40;;;5.47;;
17606;SDS011;8922;52.240;20.980;2023-02-23T05:36:08;7.67;;;4.23;;
17606;SDS011;8922;52.240;20.980;2023-02-23T05:38:38;7.83;;;4.43;;
17606;SDS011;8922;52.240;20.980;2023-02-23T05:41:09;7.10;;;4.23;;
17606;SDS011;8922;52.240;20.980;2023-02-23T05:43:39;5.63;;;3.83;;
17606;SDS011;8922;52.240;20.980;2023-02-23T05:46:08;8.63;;;4.67;;
17606;SDS011;8922;52.240;20.980;2023-02-23T05:48:38;7.20;;;4.63;;
17606;SDS011;8922;52.240;20.980;2023-02-23T05:51:08;5.03;;;4.00;;
17606;SDS011;8922;52.240;20.980;2023-02-23T05:53:39;5.47;;;3.60;;
17606;SDS011;8922;52.240;20.980;2023-02-23T05:56:11;7.80;;;4.20;;
17606;SDS011;8922;52.240;20.980;2023-02-23T05:58:46;7.70;;;4.87;;
17606;SDS011;8922;52.240;20.980;2023-02-23T06:01:14;8.17;;;4.20;;
17606;SDS011;8922;52.240;20.980;2023-02-23T06:03:44;5.10;;;3.90;;
17606;SDS011;8922;52.240;20.980;2023-02-23T06:06:13;5.80;;;3.73;;
17606;SDS011;8922;52.240;20.980;2023-02-23T06:08:42;6.53;;;4.07;;
17606;SDS011;8922;52.240;20.980;2023-02-23T06:11:12;6.63;;;3.90;;
17606;SDS011;8922;52.240;20.980;2023-02-23T06:13:41;5.13;;;3.87;;
17606;SDS011;8922;52.240;20.980;2023-02-23T06:16:09;5.87;;;4.07;;
17606;SDS011;8922;52.240;20.980;2023-02-23T06:18:38;7.70;;;3.90;;
17606;SDS011;8922;52.240;20.980;2023-02-23T06:21:07;5.50;;;3.63;;
17606;SDS011;8922;52.240;20.980;2023-02-23T06:23:35;5.33;;;3.87;;
17606;SDS011;8922;52.240;20.980;2023-02-23T06:26:04;5.27;;;4.00;;
17606;SDS011;8922;52.240;20.980;2023-02-23T06:28:34;5.77;;;3.70;;
17606;SDS011;8922;52.240;20.980;2023-02-23T06:31:04;6.43;;;4.30;;
17606;SDS011;8922;52.240;20.980;2023-02-23T06:33:33;7.10;;;4.03;;
17606;SDS011;8922;52.240;20.980;2023-02-23T06:36:01;6.07;;;3.90;;
17606;SDS011;8922;52.240;20.980;2023-02-23T06:38:30;8.20;;;3.77;;
17606;SDS011;8922;52.240;20.980;2023-02-23T06:40:58;5.57;;;3.80;;
17606;SDS011;8922;52.240;20.980;2023-02-23T06:43:34;7.43;;;4.77;;
17606;SDS011;8922;52.240;20.980;2023-02-23T06:46:03;5.57;;;3.80;;
17606;SDS011;8922;52.240;20.980;2023-02-23T06:48:31;5.70;;;4.20;;
17606;SDS011;8922;52.240;20.980;2023-02-23T06:51:00;8.40;;;4.97;;
17606;SDS011;8922;52.240;20.980;2023-02-23T06:53:30;8.60;;;4.70;;
17606;SDS011;8922;52.240;20.980;2023-02-23T06:55:58;9.63;;;4.80;;
17606;SDS011;8922;52.240;20.980;2023-02-23T06:58:27;5.00;;;3.67;;
17606;SDS011;8922;52.240;20.980;2023-02-23T07:00:57;8.10;;;4.30;;
17606;SDS011;8922;52.240;20.980;2023-02-23T07:03:26;6.63;;;4.57;;
17606;SDS011;8922;52.240;20.980;2023-02-23T07:05:56;7.33;;;4.50;;
17606;SDS011;8922;52.240;20.980;2023-02-23T07:08:24;7.07;;;4.07;;
17606;SDS011;8922;52.240;20.980;2023-02-23T07:10:53;6.07;;;4.10;;
17606;SDS011;8922;52.240;20.980;2023-02-23T07:13:22;8.00;;;4.07;;
17606;SDS011;8922;52.240;20.980;2023-02-23T07:15:55;5.97;;;4.00;;
17606;SDS011;8922;52.240;20.980;2023-02-23T07:18:25;10.90;;;4.70;;
17606;SDS011;8922;52.240;20.980;2023-02-23T07:20:54;7.73;;;3.90;;
17606;SDS011;8922;52.240;20.980;2023-02-23T07:23:23;9.20;;;4.30;;
17606;SDS011;8922;52.240;20.980;2023-02-23T07:25:52;7.70;;;4.93;;
17606;SDS011;8922;52.240;20.980;2023-02-23T07:28:21;7.17;;;3.90;;
17606;SDS011;8922;52.240;20.980;2023-02-23T07:30:53;6.23;;;4.40;;
17606;SDS011;8922;52.240;20.980;2023-02-23T07:33:24;6.00;;;4.13;;
17606;SDS011;8922;52.240;20.980;2023-02-23T07:35:56;6.93;;;4.37;;
17606;SDS011;8922;52.240;20.980;2023-02-23T07:38:24;8.43;;;4.40;;
17606;SDS011;8922;52.240;20.980;2023-02-23T07:40:53;6.07;;;4.13;;
17606;SDS011;8922;52.240;20.980;2023-02-23T07:43:24;7.27;;;4.70;;
17606;SDS011;8922;52.240;20.980;2023-02-23T07:45:57;6.83;;;4.67;;
17606;SDS011;8922;52.240;20.980;2023-02-23T07:48:27;7.80;;;4.83;;
17606;SDS011;8922;52.240;20.980;2023-02-23T07:50:56;6.83;;;4.23;;
17606;SDS011;8922;52.240;20.980;2023-02-23T07:53:25;6.80;;;4.27;;
17606;SDS011;8922;52.240;20.980;2023-02-23T07:55:56;8.30;;;4.37;;
17606;SDS011;8922;52.240;20.980;2023-02-23T07:58:26;7.10;;;4.50;;
17606;SDS011;8922;52.240;20.980;2023-02-23T08:00:55;8.33;;;4.40;;
17606;SDS011;8922;52.240;20.980;2023-02-23T08:03:24;6.23;;;4.30;;
17606;SDS011;8922;52.240;20.980;2023-02-23T08:05:54;6.67;;;3.93;;
17606;SDS011;8922;52.240;20.980;2023-02-23T08:08:23;7.80;;;4.60;;
17606;SDS011;8922;52.240;20.980;2023-02-23T08:10:57;7.40;;;4.60;;
17606;SDS011;8922;52.240;20.980;2023-02-23T08:13:27;8.93;;;4.63;;
17606;SDS011;8922;52.240;20.980;2023-02-23T08:15:57;7.53;;;4.60;;
17606;SDS011;8922;52.240;20.980;2023-02-23T08:18:26;6.90;;;4.40;;
17606;SDS011;8922;52.240;20.980;2023-02-23T08:20:59;6.00;;;4.20;;
17606;SDS011;8922;52.240;20.980;2023-02-23T08:23:28;6.53;;;4.57;;
17606;SDS011;8922;52.240;20.980;2023-02-23T08:25:58;8.83;;;4.80;;
17606;SDS011;8922;52.240;20.980;2023-02-23T08:28:27;7.90;;;4.30;;
17606;SDS011;8922;52.240;20.980;2023-02-23T08:30:57;8.20;;;4.73;;
17606;SDS011;8922;52.240;20.980;2023-02-23T08:33:26;7.37;;;4.43;;
17606;SDS011;8922;52.240;20.980;2023-02-23T08:35:58;9.87;;;4.93;;
17606;SDS011;8922;52.240;20.980;2023-02-23T08:38:29;12.47;;;5.30;;
17606;SDS011;8922;52.240;20.980;2023-02-23T08:40:58;8.93;;;4.77;;
17606;SDS011;8922;52.240;20.980;2023-02-23T08:43:27;7.40;;;4.13;;
17606;SDS011;8922;52.240;20.980;2023-02-23T08:45:56;7.50;;;4.63;;
17606;SDS011;8922;52.240;20.980;2023-02-23T08:48:25;8.23;;;5.20;;
17606;SDS011;8922;52.240;20.980;2023-02-23T08:50:54;8.40;;;5.03;;
17606;SDS011;8922;52.240;20.980;2023-02-23T08:53:25;5.90;;;4.60;;
17606;SDS011;8922;52.240;20.980;2023-02-23T08:55:55;8.40;;;5.13;;
17606;SDS011;8922;52.240;20.980;2023-02-23T08:58:25;7.73;;;4.90;;
17606;SDS011;8922;52.240;20.980;2023-02-23T09:00:55;5.70;;;3.90;;
17606;SDS011;8922;52.240;20.980;2023-02-23T09:03:25;9.20;;;5.67;;
17606;SDS011;8922;52.240;20.980;2023-02-23T09:05:56;10.20;;;4.83;;
17606;SDS011;8922;52.240;20.980;2023-02-23T09:08:33;7.63;;;4.40;;
17606;SDS011;8922;52.240;20.980;2023-02-23T09:11:01;7.10;;;4.80;;
17606;SDS011;8922;52.240;20.980;2023-02-23T09:13:30;7.67;;;4.47;;
17606;SDS011;8922;52.240;20.980;2023-02-23T09:15:58;8.00;;;5.00;;
17606;SDS011;8922;52.240;20.980;2023-02-23T09:18:29;10.07;;;5.00;;
17606;SDS011;8922;52.240;20.980;2023-02-23T09:20:58;7.13;;;5.30;;
17606;SDS011;8922;52.240;20.980;2023-02-23T09:23:33;5.83;;;4.53;;
17606;SDS011;8922;52.240;20.980;2023-02-23T09:26:02;6.63;;;5.27;;
17606;SDS011;8922;52.240;20.980;2023-02-23T09:28:31;6.53;;;4.60;;
17606;SDS011;8922;52.240;20.980;2023-02-23T09:31:03;8.80;;;5.53;;
17606;SDS011;8922;52.240;20.980;2023-02-23T09:33:33;8.03;;;5.77;;
17606;SDS011;8922;52.240;20.980;2023-02-23T09:36:03;5.57;;;4.80;;
17606;SDS011;8922;52.240;20.980;2023-02-23T09:38:34;5.97;;;4.77;;
17606;SDS011;8922;52.240;20.980;2023-02-23T09:41:03;6.73;;;5.23;;
17606;SDS011;8922;52.240;20.980;2023-02-23T09:43:50;6.43;;;5.17;;
17606;SDS011;8922;52.240;20.980;2023-02-23T09:46:29;7.63;;;5.27;;
17606;SDS011;8922;52.240;20.980;2023-02-23T09:49:07;7.47;;;5.23;;
17606;SDS011;8922;52.240;20.980;2023-02-23T09:51:43;7.13;;;5.67;;
17606;SDS011;8922;52.240;20.980;2023-02-23T09:54:18;7.87;;;5.60;;
17606;SDS011;8922;52.240;20.980;2023-02-23T09:56:50;7.17;;;5.67;;
17606;SDS011;8922;52.240;20.980;2023-02-23T09:59:21;7.63;;;6.27;;
17606;SDS011;8922;52.240;20.980;2023-02-23T10:01:53;9.57;;;6.20;;
17606;SDS011;8922;52.240;20.980;2023-02-23T10:04:31;9.87;;;5.87;;
17606;SDS011;8922;52.240;20.980;2023-02-23T10:07:08;7.05;;;5.47;;
17606;SDS011;8922;52.240;20.980;2023-02-23T10:09:54;7.22;;;5.40;;
17606;SDS011;8922;52.240;20.980;2023-02-23T10:12:34;9.57;;;5.38;;
17606;SDS011;8922;52.240;20.980;2023-02-23T10:15:17;6.57;;;5.28;;
17606;SDS011;8922;52.240;20.980;2023-02-23T10:17:58;6.47;;;5.53;;
17606;SDS011;8922;52.240;20.980;2023-02-23T10:20:38;7.25;;;5.85;;
17606;SDS011;8922;52.240;20.980;2023-02-23T10:23:17;9.30;;;5.38;;
17606;SDS011;8922;52.240;20.980;2023-02-23T10:25:56;6.10;;;5.40;;
17606;SDS011;8922;52.240;20.980;2023-02-23T10:28:32;5.40;;;4.78;;
17606;SDS011;8922;52.240;20.980;2023-02-23T10:31:11;7.45;;;5.90;;
17606;SDS011;8922;52.240;20.980;2023-02-23T10:33:54;8.60;;;5.28;;
17606;SDS011;8922;52.240;20.980;2023-02-23T10:36:30;6.05;;;5.45;;
17606;SDS011;8922;52.240;20.980;2023-02-23T10:39:04;6.32;;;5.72;;
17606;SDS011;8922;52.240;20.980;2023-02-23T10:41:36;6.15;;;5.22;;
17606;SDS011;8922;52.240;20.980;2023-02-23T10:44:06;6.40;;;5.43;;
17606;SDS011;8922;52.240;20.980;2023-02-23T10:46:48;5.43;;;4.93;;
17606;SDS011;8922;52.240;20.980;2023-02-23T10:49:21;6.65;;;5.60;;
17606;SDS011;8922;52.240;20.980;2023-02-23T10:51:56;6.35;;;5.47;;
17606;SDS011;8922;52.240;20.980;2023-02-23T10:54:35;6.20;;;5.05;;
17606;SDS011;8922;52.240;20.980;2023-02-23T10:57:11;5.82;;;5.22;;
17606;SDS011;8922;52.240;20.980;2023-02-23T11:02:58;6.00;;;5.40;;
17606;SDS011;8922;52.240;20.980;2023-02-23T11:05:33;9.90;;;5.57;;
17606;SDS011;8922;52.240;20.980;2023-02-23T11:08:16;6.20;;;5.60;;
17606;SDS011;8922;52.240;20.980;2023-02-23T11:10:59;6.20;;;5.50;;
17606;SDS011;8922;52.240;20.980;2023-02-23T11:13:47;5.50;;;5.00;;
17606;SDS011;8922;52.240;20.980;2023-02-23T11:16:17;5.93;;;5.35;;
17606;SDS011;8922;52.240;20.980;2023-02-23T11:18:49;6.90;;;5.38;;
17606;SDS011;8922;52.240;20.980;2023-02-23T11:21:22;6.65;;;5.78;;
17606;SDS011;8922;52.240;20.980;2023-02-23T11:24:00;6.65;;;5.72;;
17606;SDS011;8922;52.240;20.980;2023-02-23T11:26:45;6.28;;;5.28;;
17606;SDS011;8922;52.240;20.980;2023-02-23T11:29:20;6.95;;;5.75;;
17606;SDS011;8922;52.240;20.980;2023-02-23T11:31:58;5.65;;;5.05;;
17606;SDS011;8922;52.240;20.980;2023-02-23T11:34:36;7.57;;;5.75;;
17606;SDS011;8922;52.240;20.980;2023-02-23T11:37:07;8.32;;;5.60;;
17606;SDS011;8922;52.240;20.980;2023-02-23T11:39:51;8.27;;;5.60;;
17606;SDS011;8922;52.240;20.980;2023-02-23T11:42:22;6.85;;;5.60;;
17606;SDS011;8922;52.240;20.980;2023-02-23T11:45:02;7.60;;;5.55;;
17606;SDS011;8922;52.240;20.980;2023-02-23T11:47:37;8.13;;;5.82;;
17606;SDS011;8922;52.240;20.980;2023-02-23T11:50:19;8.10;;;5.72;;
17606;SDS011;8922;52.240;20.980;2023-02-23T11:52:54;8.80;;;5.78;;
17606;SDS011;8922;52.240;20.980;2023-02-23T11:55:29;9.18;;;5.93;;
17606;SDS011;8922;52.240;20.980;2023-02-23T11:58:15;8.70;;;5.95;;
17606;SDS011;8922;52.240;20.980;2023-02-23T12:00:56;7.80;;;5.70;;
17606;SDS011;8922;52.240;20.980;2023-02-23T12:03:36;7.85;;;5.32;;
17606;SDS011;8922;52.240;20.980;2023-02-23T12:06:11;7.45;;;5.53;;
17606;SDS011;8922;52.240;20.980;2023-02-23T12:08:53;9.13;;;5.57;;
17606;SDS011;8922;52.240;20.980;2023-02-23T12:11:28;8.00;;;5.85;;
17606;SDS011;8922;52.240;20.980;2023-02-23T12:14:03;10.23;;;5.70;;
17606;SDS011;8922;52.240;20.980;2023-02-23T12:16:47;7.83;;;5.20;;
17606;SDS011;8922;52.240;20.980;2023-02-23T12:19:24;7.43;;;4.80;;
17606;SDS011;8922;52.240;20.980;2023-02-23T12:22:01;6.63;;;5.50;;
17606;SDS011;8922;52.240;20.980;2023-02-23T12:24:37;8.90;;;5.67;;
17606;SDS011;8922;52.240;20.980;2023-02-23T12:27:13;7.93;;;5.70;;
17606;SDS011;8922;52.240;20.980;2023-02-23T12:29:52;7.67;;;5.63;;
17606;SDS011;8922;52.240;20.980;2023-02-23T12:32:37;7.20;;;5.37;;
17606;SDS011;8922;52.240;20.980;2023-02-23T12:35:14;7.87;;;5.17;;
17606;SDS011;8922;52.240;20.980;2023-02-23T12:37:48;7.13;;;5.33;;
17606;SDS011;8922;52.240;20.980;2023-02-23T12:40:23;7.07;;;5.00;;
17606;SDS011;8922;52.240;20.980;2023-02-23T12:42:58;7.83;;;5.40;;
17606;SDS011;8922;52.240;20.980;2023-02-23T12:45:34;10.13;;;5.30;;
17606;SDS011;8922;52.240;20.980;2023-02-23T12:48:13;8.20;;;4.97;;
17606;SDS011;8922;52.240;20.980;2023-02-23T12:50:54;9.30;;;5.80;;
17606;SDS011;8922;52.240;20.980;2023-02-23T12:53:32;8.47;;;5.43;;
17606;SDS011;8922;52.240;20.980;2023-02-23T12:56:11;8.73;;;5.40;;
17606;SDS011;8922;52.240;20.980;2023-02-23T12:59:02;7.33;;;5.10;;
17606;SDS011;8922;52.240;20.980;2023-02-23T13:01:48;9.03;;;4.83;;
17606;SDS011;8922;52.240;20.980;2023-02-23T13:04:36;7.27;;;5.10;;
17606;SDS011;8922;52.240;20.980;2023-02-23T13:07:30;7.80;;;5.30;;
17606;SDS011;8922;52.240;20.980;2023-02-23T13:10:12;6.23;;;4.97;;
17606;SDS011;8922;52.240;20.980;2023-02-23T13:12:54;7.27;;;5.23;;
17606;SDS011;8922;52.240;20.980;2023-02-23T13:15:38;6.63;;;4.73;;
17606;SDS011;8922;52.240;20.980;2023-02-23T13:18:20;10.60;;;5.07;;
17606;SDS011;8922;52.240;20.980;2023-02-23T13:20:56;7.97;;;4.93;;
17606;SDS011;8922;52.240;20.980;2023-02-23T13:23:34;7.47;;;5.40;;
17606;SDS011;8922;52.240;20.980;2023-02-23T13:26:11;7.57;;;5.10;;
17606;SDS011;8922;52.240;20.980;2023-02-23T13:28:51;10.03;;;4.93;;
17606;SDS011;8922;52.240;20.980;2023-02-23T13:31:26;9.47;;;5.40;;
17606;SDS011;8922;52.240;20.980;2023-02-23T13:33:59;6.63;;;5.27;;
17606;SDS011;8922;52.240;20.980;2023-02-23T13:36:33;7.97;;;5.53;;
17606;SDS011;8922;52.240;20.980;2023-02-23T13:42:25;8.37;;;5.80;;
17606;SDS011;8922;52.240;20.980;2023-02-23T13:45:15;8.93;;;5.93;;
17606;SDS011;8922;52.240;20.980;2023-02-23T13:48:00;7.97;;;5.27;;
17606;SDS011;8922;52.240;20.980;2023-02-23T13:50:41;8.23;;;5.37;;
17606;SDS011;8922;52.240;20.980;2023-02-23T13:53:30;10.73;;;6.47;;
17606;SDS011;8922;52.240;20.980;2023-02-23T13:56:07;10.07;;;5.73;;
17606;SDS011;8922;52.240;20.980;2023-02-23T13:58:44;8.33;;;5.57;;
17606;SDS011;8922;52.240;20.980;2023-02-23T14:01:15;7.20;;;5.40;;
17606;SDS011;8922;52.240;20.980;2023-02-23T14:03:52;8.43;;;5.27;;
17606;SDS011;8922;52.240;20.980;2023-02-23T14:06:24;10.70;;;6.67;;
17606;SDS011;8922;52.240;20.980;2023-02-23T14:08:58;10.73;;;6.03;;
17606;SDS011;8922;52.240;20.980;2023-02-23T14:11:36;8.80;;;5.57;;
17606;SDS011;8922;52.240;20.980;2023-02-23T14:14:36;8.23;;;5.53;;
17606;SDS011;8922;52.240;20.980;2023-02-23T14:17:10;9.13;;;5.10;;
17606;SDS011;8922;52.240;20.980;2023-02-23T14:23:28;8.90;;;5.23;;
17606;SDS011;8922;52.240;20.980;2023-02-23T14:26:11;8.10;;;5.40;;
17606;SDS011;8922;52.240;20.980;2023-02-23T14:29:20;8.83;;;5.83;;
17606;SDS011;8922;52.240;20.980;2023-02-23T14:31:53;8.90;;;5.97;;
17606;SDS011;8922;52.240;20.980;2023-02-23T14:34:41;7.33;;;5.20;;
17606;SDS011;8922;52.240;20.980;2023-02-23T14:37:15;6.70;;;4.80;;
17606;SDS011;8922;52.240;20.980;2023-02-23T14:39:50;9.20;;;5.67;;
17606;SDS011;8922;52.240;20.980;2023-02-23T14:42:24;7.57;;;5.10;;
17606;SDS011;8922;52.240;20.980;2023-02-23T14:44:55;9.67;;;5.63;;
17606;SDS011;8922;52.240;20.980;2023-02-23T14:47:39;8.37;;;5.40;;
17606;SDS011;8922;52.240;20.980;2023-02-23T14:50:13;8.87;;;5.23;;
17606;SDS011;8922;52.240;20.980;2023-02-23T14:52:52;11.37;;;6.00;;
17606;SDS011;8922;52.240;20.980;2023-02-23T14:55:23;8.40;;;5.63;;
17606;SDS011;8922;52.240;20.980;2023-02-23T14:57:56;9.67;;;6.00;;
17606;SDS011;8922;52.240;20.980;2023-02-23T15:00:25;9.60;;;6.00;;
17606;SDS011;8922;52.240;20.980;2023-02-23T15:02:58;8.30;;;5.43;;
17606;SDS011;8922;52.240;20.980;2023-02-23T15:05:29;7.80;;;4.97;;
17606;SDS011;8922;52.240;20.980;2023-02-23T15:08:02;11.47;;;6.37;;
17606;SDS011;8922;52.240;20.980;2023-02-23T15:10:36;9.30;;;6.23;;
17606;SDS011;8922;52.240;20.980;2023-02-23T15:13:09;10.70;;;6.27;;
17606;SDS011;8922;52.240;20.980;2023-02-23T15:15:46;12.30;;;6.23;;
17606;SDS011;8922;52.240;20.980;2023-02-23T15:18:18;12.23;;;6.87;;
17606;SDS011;8922;52.240;20.980;2023-02-23T15:20:54;7.90;;;5.63;;
17606;SDS011;8922;52.240;20.980;2023-02-23T15:23:24;11.97;;;6.03;;
17606;SDS011;8922;52.240;20.980;2023-02-23T15:25:54;8.33;;;5.83;;
17606;SDS011;8922;52.240;20.980;2023-02-23T15:28:26;11.03;;;6.60;;
17606;SDS011;8922;52.240;20.980;2023-02-23T15:30:58;14.50;;;5.80;;
17606;SDS011;8922;52.240;20.980;2023-02-23T15:33:29;10.27;;;6.27;;
17606;SDS011;8922;52.240;20.980;2023-02-23T15:36:01;10.13;;;6.50;;
17606;SDS011;8922;52.240;20.980;2023-02-23T15:38:37;10.63;;;6.57;;
17606;SDS011;8922;52.240;20.980;2023-02-23T15:41:12;11.00;;;6.27;;
17606;SDS011;8922;52.240;20.980;2023-02-23T15:43:53;9.77;;;6.00;;
17606;SDS011;8922;52.240;20.980;2023-02-23T15:46:29;9.70;;;6.17;;
17606;SDS011;8922;52.240;20.980;2023-02-23T15:48:59;11.57;;;6.03;;
17606;SDS011;8922;52.240;20.980;2023-02-23T15:51:31;12.03;;;6.60;;
17606;SDS011;8922;52.240;20.980;2023-02-23T15:54:07;11.87;;;6.50;;